Home   Weather   Veles   Past weeks
Flag for North Macedonia

Past Weather in Veles, North Macedonia — Yesterday and Last 2 Weeks

Currently: 28 °F. Clear. (Weather station: Skopje-Petrovec, North Macedonia). See more current weather

Past Weather in Veles — Graph

°F

Veles Temperature Yesterday

Maximum temperature yesterday: 50 °F (at 1:30 pm)
Minimum temperature yesterday: 19 °F (at 5:30 am)
Average temperature yesterday: 32 °F

High & Low Weather Summary for the Past Weeks

 TemperatureHumidityPressure
High63 °F (Nov 17, 2:30 pm)100% (Nov 14, 12:30 am)30.54 "Hg (Nov 14, 12:30 am)
Low19 °F (Nov 26, 6:00 am)44% (Nov 27, 2:30 pm)30.07 "Hg (Nov 28, 1:30 pm)
Average39 °F80%30.30 "Hg
* Reported Nov 13 11:00 pm — Nov 28 11:30 pm, Veles. Weather by CustomWeather, © 2020

Note: Actual official high and low records may vary slightly from our data, if they occured in-between our weather recording intervals... More about our weather records

Veles Weather History for the Previous 24 Hours

Scroll right to see more
 ConditionsComfort  
Time TempWeatherWind HumidityBarometerVisibility
11:30 pm
Sat, Nov 28
30 °FClear.1 mph93%30.09 "Hg4 mi
11:00 pm30 °FClear.1 mph86%30.09 "Hg4 mi
10:30 pm30 °FClear.No wind93%30.09 "Hg4 mi
10:00 pm32 °FClear.2 mph87%30.09 "Hg4 mi
9:30 pm32 °FClear.No wind87%30.09 "Hg5 mi
9:00 pm32 °FClear.2 mph87%30.09 "Hg5 mi
8:30 pm32 °FClear.No wind87%30.09 "Hg5 mi
8:00 pm32 °FClear.No wind80%30.09 "Hg5 mi
7:30 pm32 °FClear.No wind80%30.09 "Hg10 mi
7:00 pm32 °FClear.No wind80%30.09 "Hg10 mi
6:30 pm39 °FClear.1 mph65%30.09 "Hg10 mi
6:00 pm36 °FClear.1 mph75%30.07 "Hg10 mi
5:30 pm37 °FClear.1 mph75%30.07 "Hg10 mi
5:00 pm37 °FClear.2 mph70%30.07 "Hg10 mi
4:30 pm39 °FClear.2 mph70%30.07 "Hg10 mi
4:00 pm43 °FSunny.No wind61%30.07 "Hg10 mi
3:30 pm48 °FSunny.No wind50%30.07 "Hg10 mi
3:00 pm50 °FSunny.No wind47%30.07 "Hg10 mi
2:00 pm50 °FSunny.No wind47%30.07 "Hg10 mi
1:30 pm50 °FSunny.1 mph47%30.07 "Hg10 mi
1:00 pm48 °FSunny.1 mph50%30.09 "Hg10 mi
12:30 pm46 °FClear.No wind57%30.09 "Hg5 mi
12:00 pm43 °FClear.1 mph61%30.12 "Hg4 mi
11:30 am43 °FClear.1 mph61%30.12 "Hg4 mi
11:00 am41 °FClear.1 mph66%30.15 "Hg4 mi
10:30 am39 °FClear.No wind70%30.15 "Hg4 mi
10:00 am34 °FFog.No wind81%30.18 "Hg3 mi
9:00 am30 °FIce fog.No wind86%30.18 "Hg2 mi
8:30 am27 °FIce fog.No wind93%30.21 "Hg2 mi
8:00 am25 °FIce fog.No wind93%30.18 "Hg2 mi
7:30 am23 °FIce fog.No wind93%30.18 "Hg2 mi
7:00 am19 °FIce fog.No wind100%30.18 "Hg2 mi
6:30 am19 °FIce fog.No wind93%30.18 "Hg3 mi
6:00 am21 °FIce fog.No wind93%30.18 "Hg3 mi
5:30 am19 °FIce fog.No wind93%30.18 "Hg3 mi
5:00 am21 °FIce fog.No wind93%30.18 "Hg3 mi
4:30 am21 °FIce fog.No wind93%30.18 "Hg3 mi
4:00 am23 °FIce fog.No wind93%30.18 "Hg3 mi
3:30 am23 °FIce fog.No wind93%30.18 "Hg3 mi
3:00 am23 °FIce fog.No wind93%30.18 "Hg3 mi
2:30 am23 °FIce fog.No wind93%30.21 "Hg3 mi
2:00 am23 °FIce fog.No wind93%30.21 "Hg3 mi
1:30 am23 °FClear.No wind93%30.18 "Hg4 mi
1:00 am25 °FIce fog.No wind93%30.18 "Hg3 mi
12:30 am27 °FIce fog.No wind93%30.18 "Hg3 mi
12:00 am25 °FClear.2 mph93%30.21 "Hg4 mi
Weather by CustomWeather, © 2020

See weather overview